sensor_id;sensor_type;location;lat;lon;timestamp;P1;durP1;ratioP1;P2;durP2;ratioP2
24407;SDS011;12542;50.924;4.516;2022-10-31T00:00:26;15.80;;;8.70;;
24407;SDS011;12542;50.924;4.516;2022-10-31T00:02:55;19.70;;;8.80;;
24407;SDS011;12542;50.924;4.516;2022-10-31T00:05:21;15.15;;;7.82;;
24407;SDS011;12542;50.924;4.516;2022-10-31T00:07:47;14.93;;;7.85;;
24407;SDS011;12542;50.924;4.516;2022-10-31T00:10:16;15.80;;;8.07;;
24407;SDS011;12542;50.924;4.516;2022-10-31T00:12:41;17.27;;;8.43;;
24407;SDS011;12542;50.924;4.516;2022-10-31T00:15:08;18.27;;;9.95;;
24407;SDS011;12542;50.924;4.516;2022-10-31T00:17:34;19.02;;;9.43;;
24407;SDS011;12542;50.924;4.516;2022-10-31T00:20:01;18.77;;;8.75;;
24407;SDS011;12542;50.924;4.516;2022-10-31T00:22:27;21.95;;;9.48;;
24407;SDS011;12542;50.924;4.516;2022-10-31T00:24:53;16.23;;;8.88;;
24407;SDS011;12542;50.924;4.516;2022-10-31T00:27:19;19.60;;;9.55;;
24407;SDS011;12542;50.924;4.516;2022-10-31T00:29:44;14.45;;;8.88;;
24407;SDS011;12542;50.924;4.516;2022-10-31T00:32:11;23.23;;;9.18;;
24407;SDS011;12542;50.924;4.516;2022-10-31T00:34:36;17.40;;;9.50;;
24407;SDS011;12542;50.924;4.516;2022-10-31T00:37:02;15.18;;;8.80;;
24407;SDS011;12542;50.924;4.516;2022-10-31T00:39:27;15.85;;;9.60;;
24407;SDS011;12542;50.924;4.516;2022-10-31T00:41:54;16.50;;;8.48;;
24407;SDS011;12542;50.924;4.516;2022-10-31T00:44:19;19.08;;;8.77;;
24407;SDS011;12542;50.924;4.516;2022-10-31T00:46:45;21.95;;;9.10;;
24407;SDS011;12542;50.924;4.516;2022-10-31T00:49:11;18.67;;;8.35;;
24407;SDS011;12542;50.924;4.516;2022-10-31T00:51:37;14.68;;;8.90;;
24407;SDS011;12542;50.924;4.516;2022-10-31T00:54:03;16.58;;;8.98;;
24407;SDS011;12542;50.924;4.516;2022-10-31T00:56:28;18.45;;;9.63;;
24407;SDS011;12542;50.924;4.516;2022-10-31T00:58:54;20.33;;;8.80;;
24407;SDS011;12542;50.924;4.516;2022-10-31T01:01:20;21.17;;;10.48;;
24407;SDS011;12542;50.924;4.516;2022-10-31T01:03:45;21.60;;;9.48;;
24407;SDS011;12542;50.924;4.516;2022-10-31T01:06:12;18.70;;;9.88;;
24407;SDS011;12542;50.924;4.516;2022-10-31T01:08:41;21.83;;;8.95;;
24407;SDS011;12542;50.924;4.516;2022-10-31T01:11:10;16.92;;;9.13;;
24407;SDS011;12542;50.924;4.516;2022-10-31T01:13:40;17.88;;;8.25;;
24407;SDS011;12542;50.924;4.516;2022-10-31T01:16:08;17.60;;;8.50;;
24407;SDS011;12542;50.924;4.516;2022-10-31T01:18:36;19.75;;;8.73;;
24407;SDS011;12542;50.924;4.516;2022-10-31T01:21:10;18.10;;;9.30;;
24407;SDS011;12542;50.924;4.516;2022-10-31T01:23:39;18.42;;;8.77;;
24407;SDS011;12542;50.924;4.516;2022-10-31T01:26:10;16.45;;;9.23;;
24407;SDS011;12542;50.924;4.516;2022-10-31T01:28:48;22.42;;;10.25;;
24407;SDS011;12542;50.924;4.516;2022-10-31T01:31:40;18.60;;;9.90;;
24407;SDS011;12542;50.924;4.516;2022-10-31T01:34:06;22.42;;;10.63;;
24407;SDS011;12542;50.924;4.516;2022-10-31T01:36:37;21.15;;;10.43;;
24407;SDS011;12542;50.924;4.516;2022-10-31T01:39:04;21.92;;;10.05;;
24407;SDS011;12542;50.924;4.516;2022-10-31T01:41:33;16.08;;;8.85;;
24407;SDS011;12542;50.924;4.516;2022-10-31T01:44:02;15.40;;;8.23;;
24407;SDS011;12542;50.924;4.516;2022-10-31T01:49:40;19.65;;;10.23;;
24407;SDS011;12542;50.924;4.516;2022-10-31T01:52:31;21.60;;;10.18;;
24407;SDS011;12542;50.924;4.516;2022-10-31T01:55:12;15.30;;;9.30;;
24407;SDS011;12542;50.924;4.516;2022-10-31T01:57:46;18.63;;;10.05;;
24407;SDS011;12542;50.924;4.516;2022-10-31T02:00:16;19.38;;;10.10;;
24407;SDS011;12542;50.924;4.516;2022-10-31T02:02:43;23.02;;;9.52;;
24407;SDS011;12542;50.924;4.516;2022-10-31T02:05:12;17.35;;;9.35;;
24407;SDS011;12542;50.924;4.516;2022-10-31T02:07:45;17.73;;;9.73;;
24407;SDS011;12542;50.924;4.516;2022-10-31T02:10:19;14.32;;;8.15;;
24407;SDS011;12542;50.924;4.516;2022-10-31T02:12:47;21.08;;;10.02;;
24407;SDS011;12542;50.924;4.516;2022-10-31T02:15:18;17.77;;;9.95;;
24407;SDS011;12542;50.924;4.516;2022-10-31T02:17:44;18.98;;;10.35;;
24407;SDS011;12542;50.924;4.516;2022-10-31T02:20:14;22.13;;;10.70;;
24407;SDS011;12542;50.924;4.516;2022-10-31T02:28:13;16.48;;;9.50;;
24407;SDS011;12542;50.924;4.516;2022-10-31T02:31:07;16.90;;;9.93;;
24407;SDS011;12542;50.924;4.516;2022-10-31T02:44:32;19.70;;;9.63;;
24407;SDS011;12542;50.924;4.516;2022-10-31T02:47:11;21.05;;;9.98;;
24407;SDS011;12542;50.924;4.516;2022-10-31T02:52:33;17.63;;;9.95;;
24407;SDS011;12542;50.924;4.516;2022-10-31T02:55:10;18.35;;;9.38;;
24407;SDS011;12542;50.924;4.516;2022-10-31T02:57:52;16.27;;;8.60;;
24407;SDS011;12542;50.924;4.516;2022-10-31T03:00:21;19.58;;;9.55;;
24407;SDS011;12542;50.924;4.516;2022-10-31T03:05:45;15.50;;;9.25;;
24407;SDS011;12542;50.924;4.516;2022-10-31T03:11:12;18.20;;;9.02;;
24407;SDS011;12542;50.924;4.516;2022-10-31T03:16:50;14.82;;;8.10;;
24407;SDS011;12542;50.924;4.516;2022-10-31T03:22:00;20.13;;;7.68;;
24407;SDS011;12542;50.924;4.516;2022-10-31T03:24:34;13.75;;;7.88;;
24407;SDS011;12542;50.924;4.516;2022-10-31T03:27:03;17.27;;;9.15;;
24407;SDS011;12542;50.924;4.516;2022-10-31T03:29:34;16.17;;;8.10;;
24407;SDS011;12542;50.924;4.516;2022-10-31T03:32:03;15.93;;;9.00;;
24407;SDS011;12542;50.924;4.516;2022-10-31T03:34:33;17.88;;;9.05;;
24407;SDS011;12542;50.924;4.516;2022-10-31T03:37:03;13.65;;;8.32;;
24407;SDS011;12542;50.924;4.516;2022-10-31T03:39:32;15.27;;;8.73;;
24407;SDS011;12542;50.924;4.516;2022-10-31T03:42:05;17.05;;;8.68;;
24407;SDS011;12542;50.924;4.516;2022-10-31T03:44:34;15.85;;;8.25;;
24407;SDS011;12542;50.924;4.516;2022-10-31T03:47:02;16.90;;;8.75;;
24407;SDS011;12542;50.924;4.516;2022-10-31T03:49:29;15.05;;;7.85;;
24407;SDS011;12542;50.924;4.516;2022-10-31T03:54:45;17.08;;;8.38;;
24407;SDS011;12542;50.924;4.516;2022-10-31T03:57:27;16.00;;;8.10;;
24407;SDS011;12542;50.924;4.516;2022-10-31T04:02:30;15.82;;;8.27;;
24407;SDS011;12542;50.924;4.516;2022-10-31T04:04:58;18.58;;;9.10;;
24407;SDS011;12542;50.924;4.516;2022-10-31T04:07:25;15.73;;;7.90;;
24407;SDS011;12542;50.924;4.516;2022-10-31T04:09:55;15.52;;;8.55;;
24407;SDS011;12542;50.924;4.516;2022-10-31T04:12:24;15.48;;;8.60;;
24407;SDS011;12542;50.924;4.516;2022-10-31T04:14:52;13.82;;;7.70;;
24407;SDS011;12542;50.924;4.516;2022-10-31T04:17:22;14.27;;;8.50;;
24407;SDS011;12542;50.924;4.516;2022-10-31T04:19:52;15.80;;;7.88;;
24407;SDS011;12542;50.924;4.516;2022-10-31T04:22:18;13.95;;;7.88;;
24407;SDS011;12542;50.924;4.516;2022-10-31T04:24:44;13.93;;;7.88;;
24407;SDS011;12542;50.924;4.516;2022-10-31T04:27:09;16.05;;;8.68;;
24407;SDS011;12542;50.924;4.516;2022-10-31T04:29:35;12.82;;;8.20;;
24407;SDS011;12542;50.924;4.516;2022-10-31T04:32:01;15.18;;;8.52;;
24407;SDS011;12542;50.924;4.516;2022-10-31T04:34:27;13.25;;;8.32;;
24407;SDS011;12542;50.924;4.516;2022-10-31T04:36:52;14.60;;;8.23;;
24407;SDS011;12542;50.924;4.516;2022-10-31T04:39:18;13.57;;;8.02;;
24407;SDS011;12542;50.924;4.516;2022-10-31T04:41:44;15.13;;;8.45;;
24407;SDS011;12542;50.924;4.516;2022-10-31T04:44:12;15.20;;;7.63;;
24407;SDS011;12542;50.924;4.516;2022-10-31T04:46:38;13.25;;;8.00;;
24407;SDS011;12542;50.924;4.516;2022-10-31T04:49:03;16.60;;;8.70;;
24407;SDS011;12542;50.924;4.516;2022-10-31T04:51:29;16.98;;;9.23;;
24407;SDS011;12542;50.924;4.516;2022-10-31T04:53:55;14.00;;;8.88;;
24407;SDS011;12542;50.924;4.516;2022-10-31T04:56:21;17.05;;;9.40;;
24407;SDS011;12542;50.924;4.516;2022-10-31T04:58:47;21.88;;;8.77;;
24407;SDS011;12542;50.924;4.516;2022-10-31T05:01:12;14.32;;;8.20;;
24407;SDS011;12542;50.924;4.516;2022-10-31T05:03:38;13.07;;;8.23;;
24407;SDS011;12542;50.924;4.516;2022-10-31T05:06:05;17.40;;;8.02;;
24407;SDS011;12542;50.924;4.516;2022-10-31T05:08:32;17.42;;;9.10;;
24407;SDS011;12542;50.924;4.516;2022-10-31T05:11:01;14.77;;;8.60;;
24407;SDS011;12542;50.924;4.516;2022-10-31T05:13:28;17.13;;;7.95;;
24407;SDS011;12542;50.924;4.516;2022-10-31T05:15:54;16.02;;;8.77;;
24407;SDS011;12542;50.924;4.516;2022-10-31T05:18:19;16.55;;;9.40;;
24407;SDS011;12542;50.924;4.516;2022-10-31T05:20:45;14.82;;;9.00;;
24407;SDS011;12542;50.924;4.516;2022-10-31T05:23:11;16.17;;;9.63;;
24407;SDS011;12542;50.924;4.516;2022-10-31T05:25:37;14.45;;;9.45;;
24407;SDS011;12542;50.924;4.516;2022-10-31T05:28:03;14.95;;;9.13;;
24407;SDS011;12542;50.924;4.516;2022-10-31T05:30:30;15.70;;;8.43;;
24407;SDS011;12542;50.924;4.516;2022-10-31T05:32:56;14.05;;;8.82;;
24407;SDS011;12542;50.924;4.516;2022-10-31T05:35:41;15.95;;;9.25;;
24407;SDS011;12542;50.924;4.516;2022-10-31T05:38:06;17.17;;;8.55;;
24407;SDS011;12542;50.924;4.516;2022-10-31T05:40:32;14.73;;;8.57;;
24407;SDS011;12542;50.924;4.516;2022-10-31T05:42:58;14.02;;;9.07;;
24407;SDS011;12542;50.924;4.516;2022-10-31T05:45:24;17.15;;;8.90;;
24407;SDS011;12542;50.924;4.516;2022-10-31T05:47:50;14.27;;;8.50;;
24407;SDS011;12542;50.924;4.516;2022-10-31T05:50:17;16.35;;;10.25;;
24407;SDS011;12542;50.924;4.516;2022-10-31T05:52:43;15.27;;;8.73;;
24407;SDS011;12542;50.924;4.516;2022-10-31T05:55:08;17.92;;;10.02;;
24407;SDS011;12542;50.924;4.516;2022-10-31T05:57:34;21.70;;;9.82;;
24407;SDS011;12542;50.924;4.516;2022-10-31T06:00:00;16.25;;;9.30;;
24407;SDS011;12542;50.924;4.516;2022-10-31T06:02:26;16.63;;;9.20;;
24407;SDS011;12542;50.924;4.516;2022-10-31T06:04:52;17.30;;;10.02;;
24407;SDS011;12542;50.924;4.516;2022-10-31T06:07:17;17.02;;;9.48;;
24407;SDS011;12542;50.924;4.516;2022-10-31T06:09:43;15.85;;;9.30;;
24407;SDS011;12542;50.924;4.516;2022-10-31T06:12:09;20.05;;;10.18;;
24407;SDS011;12542;50.924;4.516;2022-10-31T06:14:34;16.90;;;9.55;;
24407;SDS011;12542;50.924;4.516;2022-10-31T06:17:00;19.85;;;10.73;;
24407;SDS011;12542;50.924;4.516;2022-10-31T06:19:26;19.38;;;9.82;;
24407;SDS011;12542;50.924;4.516;2022-10-31T06:21:51;19.42;;;9.65;;
24407;SDS011;12542;50.924;4.516;2022-10-31T06:24:17;15.90;;;9.38;;
24407;SDS011;12542;50.924;4.516;2022-10-31T06:26:43;19.02;;;9.95;;
24407;SDS011;12542;50.924;4.516;2022-10-31T06:29:09;16.05;;;9.70;;
24407;SDS011;12542;50.924;4.516;2022-10-31T06:31:35;20.50;;;10.13;;
24407;SDS011;12542;50.924;4.516;2022-10-31T06:34:01;15.82;;;10.27;;
24407;SDS011;12542;50.924;4.516;2022-10-31T06:36:27;18.63;;;10.32;;
24407;SDS011;12542;50.924;4.516;2022-10-31T06:38:52;20.23;;;11.05;;
24407;SDS011;12542;50.924;4.516;2022-10-31T06:41:18;15.98;;;10.13;;
24407;SDS011;12542;50.924;4.516;2022-10-31T06:43:47;16.35;;;10.27;;
24407;SDS011;12542;50.924;4.516;2022-10-31T06:46:13;15.77;;;10.48;;
24407;SDS011;12542;50.924;4.516;2022-10-31T06:48:42;24.00;;;11.48;;
24407;SDS011;12542;50.924;4.516;2022-10-31T06:51:10;17.40;;;9.75;;
24407;SDS011;12542;50.924;4.516;2022-10-31T06:53:36;18.33;;;10.18;;
24407;SDS011;12542;50.924;4.516;2022-10-31T06:56:02;17.88;;;9.00;;
24407;SDS011;12542;50.924;4.516;2022-10-31T06:58:28;15.50;;;8.55;;
24407;SDS011;12542;50.924;4.516;2022-10-31T07:00:54;17.35;;;10.02;;
24407;SDS011;12542;50.924;4.516;2022-10-31T07:03:19;14.63;;;8.98;;
24407;SDS011;12542;50.924;4.516;2022-10-31T07:05:45;21.02;;;10.30;;
24407;SDS011;12542;50.924;4.516;2022-10-31T07:08:12;14.63;;;9.18;;
24407;SDS011;12542;50.924;4.516;2022-10-31T07:10:39;16.08;;;8.88;;
24407;SDS011;12542;50.924;4.516;2022-10-31T07:13:08;20.70;;;11.00;;
24407;SDS011;12542;50.924;4.516;2022-10-31T07:15:37;20.30;;;11.25;;
24407;SDS011;12542;50.924;4.516;2022-10-31T07:18:05;20.48;;;10.18;;
24407;SDS011;12542;50.924;4.516;2022-10-31T07:20:34;22.13;;;11.70;;
24407;SDS011;12542;50.924;4.516;2022-10-31T07:23:00;22.33;;;11.43;;
24407;SDS011;12542;50.924;4.516;2022-10-31T07:25:26;22.02;;;11.23;;
24407;SDS011;12542;50.924;4.516;2022-10-31T07:27:51;18.98;;;10.95;;
24407;SDS011;12542;50.924;4.516;2022-10-31T07:30:17;19.88;;;11.63;;
24407;SDS011;12542;50.924;4.516;2022-10-31T07:32:44;17.45;;;11.10;;
24407;SDS011;12542;50.924;4.516;2022-10-31T07:35:13;17.42;;;10.95;;
24407;SDS011;12542;50.924;4.516;2022-10-31T07:37:41;24.92;;;11.70;;
24407;SDS011;12542;50.924;4.516;2022-10-31T07:40:07;22.27;;;11.02;;
24407;SDS011;12542;50.924;4.516;2022-10-31T07:42:37;17.92;;;11.52;;
24407;SDS011;12542;50.924;4.516;2022-10-31T07:45:05;21.65;;;11.52;;
24407;SDS011;12542;50.924;4.516;2022-10-31T07:47:39;16.40;;;10.75;;
24407;SDS011;12542;50.924;4.516;2022-10-31T07:50:06;18.58;;;10.60;;
24407;SDS011;12542;50.924;4.516;2022-10-31T07:52:34;23.00;;;10.80;;
24407;SDS011;12542;50.924;4.516;2022-10-31T07:55:00;19.75;;;11.48;;
24407;SDS011;12542;50.924;4.516;2022-10-31T07:57:30;19.30;;;9.93;;
24407;SDS011;12542;50.924;4.516;2022-10-31T07:59:55;23.08;;;12.48;;
24407;SDS011;12542;50.924;4.516;2022-10-31T08:02:21;20.20;;;11.38;;
24407;SDS011;12542;50.924;4.516;2022-10-31T08:04:47;23.02;;;12.10;;
24407;SDS011;12542;50.924;4.516;2022-10-31T08:07:14;21.20;;;12.55;;
24407;SDS011;12542;50.924;4.516;2022-10-31T08:09:40;20.35;;;11.80;;
24407;SDS011;12542;50.924;4.516;2022-10-31T08:12:06;19.77;;;11.35;;
24407;SDS011;12542;50.924;4.516;2022-10-31T08:14:31;16.55;;;10.27;;
24407;SDS011;12542;50.924;4.516;2022-10-31T08:16:58;20.38;;;11.48;;
24407;SDS011;12542;50.924;4.516;2022-10-31T08:19:24;17.40;;;11.20;;
24407;SDS011;12542;50.924;4.516;2022-10-31T08:21:50;22.60;;;11.55;;
24407;SDS011;12542;50.924;4.516;2022-10-31T08:24:17;21.05;;;11.25;;
24407;SDS011;12542;50.924;4.516;2022-10-31T08:26:45;19.00;;;11.50;;
24407;SDS011;12542;50.924;4.516;2022-10-31T08:29:12;16.35;;;10.45;;
24407;SDS011;12542;50.924;4.516;2022-10-31T08:31:38;18.52;;;10.95;;
24407;SDS011;12542;50.924;4.516;2022-10-31T08:34:04;18.48;;;11.02;;
24407;SDS011;12542;50.924;4.516;2022-10-31T08:36:30;21.23;;;10.60;;
24407;SDS011;12542;50.924;4.516;2022-10-31T08:38:56;17.65;;;10.43;;
24407;SDS011;12542;50.924;4.516;2022-10-31T08:41:21;18.48;;;10.55;;
24407;SDS011;12542;50.924;4.516;2022-10-31T08:43:47;16.55;;;10.13;;
24407;SDS011;12542;50.924;4.516;2022-10-31T08:46:13;22.65;;;11.18;;
24407;SDS011;12542;50.924;4.516;2022-10-31T08:48:39;16.15;;;11.10;;
24407;SDS011;12542;50.924;4.516;2022-10-31T08:51:05;19.45;;;11.23;;
24407;SDS011;12542;50.924;4.516;2022-10-31T08:53:31;18.38;;;10.88;;
24407;SDS011;12542;50.924;4.516;2022-10-31T08:55:59;19.25;;;11.43;;
24407;SDS011;12542;50.924;4.516;2022-10-31T08:58:25;20.88;;;11.52;;
24407;SDS011;12542;50.924;4.516;2022-10-31T09:00:52;26.30;;;12.40;;
24407;SDS011;12542;50.924;4.516;2022-10-31T09:03:20;17.65;;;10.77;;
24407;SDS011;12542;50.924;4.516;2022-10-31T09:05:48;21.08;;;10.90;;
24407;SDS011;12542;50.924;4.516;2022-10-31T09:08:14;22.75;;;12.30;;
24407;SDS011;12542;50.924;4.516;2022-10-31T09:10:40;19.95;;;11.82;;
24407;SDS011;12542;50.924;4.516;2022-10-31T09:13:08;21.80;;;12.00;;
24407;SDS011;12542;50.924;4.516;2022-10-31T09:15:37;17.52;;;11.55;;
24407;SDS011;12542;50.924;4.516;2022-10-31T09:18:05;23.48;;;12.07;;
24407;SDS011;12542;50.924;4.516;2022-10-31T09:20:32;25.67;;;12.85;;
24407;SDS011;12542;50.924;4.516;2022-10-31T09:23:00;22.20;;;12.63;;
24407;SDS011;12542;50.924;4.516;2022-10-31T09:25:31;19.63;;;12.40;;
24407;SDS011;12542;50.924;4.516;2022-10-31T09:27:59;22.52;;;12.35;;
24407;SDS011;12542;50.924;4.516;2022-10-31T09:30:26;20.45;;;11.75;;
24407;SDS011;12542;50.924;4.516;2022-10-31T09:32:57;19.58;;;12.32;;
24407;SDS011;12542;50.924;4.516;2022-10-31T09:35:24;22.23;;;12.75;;
24407;SDS011;12542;50.924;4.516;2022-10-31T09:37:54;23.23;;;13.20;;
24407;SDS011;12542;50.924;4.516;2022-10-31T09:43:06;23.10;;;13.10;;
24407;SDS011;12542;50.924;4.516;2022-10-31T09:51:12;23.63;;;12.60;;
24407;SDS011;12542;50.924;4.516;2022-10-31T09:56:37;21.35;;;11.98;;
24407;SDS011;12542;50.924;4.516;2022-10-31T09:59:04;23.73;;;13.48;;
24407;SDS011;12542;50.924;4.516;2022-10-31T10:01:46;24.02;;;12.95;;
24407;SDS011;12542;50.924;4.516;2022-10-31T10:06:44;22.02;;;12.40;;
24407;SDS011;12542;50.924;4.516;2022-10-31T10:09:12;20.17;;;12.85;;
24407;SDS011;12542;50.924;4.516;2022-10-31T10:11:53;24.98;;;13.68;;
24407;SDS011;12542;50.924;4.516;2022-10-31T10:20:16;19.33;;;11.85;;
24407;SDS011;12542;50.924;4.516;2022-10-31T10:23:22;19.45;;;12.77;;
24407;SDS011;12542;50.924;4.516;2022-10-31T10:26:10;22.58;;;12.13;;
24407;SDS011;12542;50.924;4.516;2022-10-31T10:28:44;21.13;;;12.73;;
24407;SDS011;12542;50.924;4.516;2022-10-31T10:31:30;20.20;;;11.38;;
24407;SDS011;12542;50.924;4.516;2022-10-31T10:37:07;24.65;;;12.10;;
24407;SDS011;12542;50.924;4.516;2022-10-31T10:39:46;21.38;;;12.73;;
24407;SDS011;12542;50.924;4.516;2022-10-31T10:42:16;20.55;;;12.60;;
24407;SDS011;12542;50.924;4.516;2022-10-31T10:45:09;27.50;;;12.82;;
24407;SDS011;12542;50.924;4.516;2022-10-31T10:48:06;24.15;;;13.88;;
24407;SDS011;12542;50.924;4.516;2022-10-31T10:50:41;24.20;;;13.77;;
24407;SDS011;12542;50.924;4.516;2022-10-31T10:53:29;21.60;;;13.68;;
24407;SDS011;12542;50.924;4.516;2022-10-31T10:56:36;24.85;;;14.32;;
24407;SDS011;12542;50.924;4.516;2022-10-31T10:59:22;26.23;;;14.10;;
24407;SDS011;12542;50.924;4.516;2022-10-31T11:01:50;28.98;;;15.48;;
24407;SDS011;12542;50.924;4.516;2022-10-31T11:06:44;26.67;;;15.65;;
24407;SDS011;12542;50.924;4.516;2022-10-31T11:09:12;22.52;;;14.32;;
24407;SDS011;12542;50.924;4.516;2022-10-31T11:11:41;24.13;;;13.93;;
24407;SDS011;12542;50.924;4.516;2022-10-31T11:14:13;25.38;;;13.90;;
24407;SDS011;12542;50.924;4.516;2022-10-31T11:16:42;25.65;;;13.75;;
24407;SDS011;12542;50.924;4.516;2022-10-31T11:19:21;25.33;;;13.65;;
24407;SDS011;12542;50.924;4.516;2022-10-31T11:21:50;23.63;;;14.88;;
24407;SDS011;12542;50.924;4.516;2022-10-31T11:24:17;27.45;;;14.70;;
24407;SDS011;12542;50.924;4.516;2022-10-31T11:26:45;26.80;;;15.18;;
24407;SDS011;12542;50.924;4.516;2022-10-31T11:29:25;24.17;;;14.35;;
24407;SDS011;12542;50.924;4.516;2022-10-31T11:31:55;29.45;;;15.02;;
24407;SDS011;12542;50.924;4.516;2022-10-31T11:34:41;23.27;;;13.77;;
24407;SDS011;12542;50.924;4.516;2022-10-31T11:37:19;29.73;;;14.13;;
24407;SDS011;12542;50.924;4.516;2022-10-31T11:39:54;24.13;;;14.10;;
24407;SDS011;12542;50.924;4.516;2022-10-31T11:42:22;24.10;;;14.25;;
24407;SDS011;12542;50.924;4.516;2022-10-31T11:45:01;34.22;;;12.95;;
24407;SDS011;12542;50.924;4.516;2022-10-31T11:47:33;26.60;;;14.35;;
24407;SDS011;12542;50.924;4.516;2022-10-31T11:50:00;25.05;;;13.23;;
24407;SDS011;12542;50.924;4.516;2022-10-31T11:57:30;24.50;;;13.65;;
24407;SDS011;12542;50.924;4.516;2022-10-31T12:08:33;22.20;;;11.23;;
24407;SDS011;12542;50.924;4.516;2022-10-31T12:14:07;28.10;;;10.25;;
24407;SDS011;12542;50.924;4.516;2022-10-31T12:17:00;20.95;;;9.75;;
24407;SDS011;12542;50.924;4.516;2022-10-31T12:22:32;19.05;;;8.65;;
24407;SDS011;12542;50.924;4.516;2022-10-31T12:25:36;22.20;;;9.20;;
24407;SDS011;12542;50.924;4.516;2022-10-31T12:28:18;17.95;;;8.52;;
24407;SDS011;12542;50.924;4.516;2022-10-31T12:36:21;22.88;;;9.15;;
24407;SDS011;12542;50.924;4.516;2022-10-31T12:50:26;19.05;;;8.73;;
24407;SDS011;12542;50.924;4.516;2022-10-31T12:55:37;18.75;;;8.20;;
24407;SDS011;12542;50.924;4.516;2022-10-31T12:58:49;19.83;;;8.48;;
24407;SDS011;12542;50.924;4.516;2022-10-31T13:01:02;23.98;;;9.60;;
24407;SDS011;12542;50.924;4.516;2022-10-31T13:03:51;17.00;;;7.80;;
24407;SDS011;12542;50.924;4.516;2022-10-31T13:07:14;15.65;;;8.23;;
24407;SDS011;12542;50.924;4.516;2022-10-31T13:09:17;17.52;;;7.28;;
24407;SDS011;12542;50.924;4.516;2022-10-31T13:11:53;14.57;;;7.60;;
24407;SDS011;12542;50.924;4.516;2022-10-31T13:14:25;17.60;;;7.60;;
24407;SDS011;12542;50.924;4.516;2022-10-31T13:16:55;25.75;;;8.63;;
24407;SDS011;12542;50.924;4.516;2022-10-31T13:27:24;17.77;;;7.53;;
24407;SDS011;12542;50.924;4.516;2022-10-31T13:30:04;20.75;;;7.50;;
24407;SDS011;12542;50.924;4.516;2022-10-31T13:32:53;16.63;;;7.45;;
24407;SDS011;12542;50.924;4.516;2022-10-31T13:43:31;14.70;;;6.45;;
24407;SDS011;12542;50.924;4.516;2022-10-31T13:46:25;17.92;;;6.80;;
24407;SDS011;12542;50.924;4.516;2022-10-31T13:49:00;15.15;;;6.70;;
24407;SDS011;12542;50.924;4.516;2022-10-31T13:51:28;13.18;;;6.70;;
24407;SDS011;12542;50.924;4.516;2022-10-31T13:56:44;16.20;;;5.68;;
24407;SDS011;12542;50.924;4.516;2022-10-31T13:59:19;20.90;;;6.15;;
24407;SDS011;12542;50.924;4.516;2022-10-31T14:07:15;18.65;;;5.97;;
24407;SDS011;12542;50.924;4.516;2022-10-31T14:09:57;16.45;;;5.55;;
24407;SDS011;12542;50.924;4.516;2022-10-31T14:12:39;12.35;;;5.28;;
24407;SDS011;12542;50.924;4.516;2022-10-31T14:15:16;11.95;;;4.78;;
24407;SDS011;12542;50.924;4.516;2022-10-31T14:17:57;19.63;;;6.05;;
24407;SDS011;12542;50.924;4.516;2022-10-31T14:28:51;12.10;;;5.30;;
24407;SDS011;12542;50.924;4.516;2022-10-31T14:31:37;19.20;;;5.43;;
24407;SDS011;12542;50.924;4.516;2022-10-31T14:37:16;13.45;;;5.40;;
24407;SDS011;12542;50.924;4.516;2022-10-31T14:42:58;14.85;;;5.35;;
24407;SDS011;12542;50.924;4.516;2022-10-31T14:51:48;14.25;;;5.65;;
24407;SDS011;12542;50.924;4.516;2022-10-31T14:54:19;16.95;;;6.22;;
24407;SDS011;12542;50.924;4.516;2022-10-31T14:56:52;17.23;;;7.25;;
24407;SDS011;12542;50.924;4.516;2022-10-31T14:59:21;15.82;;;6.25;;
24407;SDS011;12542;50.924;4.516;2022-10-31T15:01:56;15.10;;;5.57;;
24407;SDS011;12542;50.924;4.516;2022-10-31T15:04:44;15.85;;;6.40;;
24407;SDS011;12542;50.924;4.516;2022-10-31T15:07:14;14.65;;;6.63;;
24407;SDS011;12542;50.924;4.516;2022-10-31T15:09:44;18.52;;;6.30;;
24407;SDS011;12542;50.924;4.516;2022-10-31T15:12:24;18.05;;;7.22;;
24407;SDS011;12542;50.924;4.516;2022-10-31T15:14:54;17.55;;;7.45;;
24407;SDS011;12542;50.924;4.516;2022-10-31T15:17:21;18.50;;;7.05;;
24407;SDS011;12542;50.924;4.516;2022-10-31T15:19:48;18.50;;;7.25;;
24407;SDS011;12542;50.924;4.516;2022-10-31T15:22:19;21.65;;;8.38;;
24407;SDS011;12542;50.924;4.516;2022-10-31T15:24:48;13.73;;;6.95;;
24407;SDS011;12542;50.924;4.516;2022-10-31T15:27:20;13.45;;;6.90;;
24407;SDS011;12542;50.924;4.516;2022-10-31T15:29:48;15.90;;;7.05;;
24407;SDS011;12542;50.924;4.516;2022-10-31T15:32:18;17.00;;;7.93;;
24407;SDS011;12542;50.924;4.516;2022-10-31T15:34:47;18.40;;;7.82;;
24407;SDS011;12542;50.924;4.516;2022-10-31T15:37:15;18.70;;;8.65;;
24407;SDS011;12542;50.924;4.516;2022-10-31T15:39:43;17.55;;;8.48;;
24407;SDS011;12542;50.924;4.516;2022-10-31T15:42:22;20.55;;;9.07;;
24407;SDS011;12542;50.924;4.516;2022-10-31T15:45:05;21.70;;;8.50;;
24407;SDS011;12542;50.924;4.516;2022-10-31T15:47:34;20.77;;;9.80;;
24407;SDS011;12542;50.924;4.516;2022-10-31T15:50:01;18.67;;;9.55;;
24407;SDS011;12542;50.924;4.516;2022-10-31T15:52:30;23.13;;;9.88;;
24407;SDS011;12542;50.924;4.516;2022-10-31T15:55:01;25.50;;;9.80;;
24407;SDS011;12542;50.924;4.516;2022-10-31T15:57:53;21.65;;;9.43;;
24407;SDS011;12542;50.924;4.516;2022-10-31T16:00:26;17.00;;;8.70;;
24407;SDS011;12542;50.924;4.516;2022-10-31T16:03:04;25.27;;;9.93;;
24407;SDS011;12542;50.924;4.516;2022-10-31T16:05:36;22.08;;;10.07;;
24407;SDS011;12542;50.924;4.516;2022-10-31T16:08:04;20.58;;;10.00;;
24407;SDS011;12542;50.924;4.516;2022-10-31T16:10:32;19.83;;;9.73;;
24407;SDS011;12542;50.924;4.516;2022-10-31T16:13:00;22.40;;;10.77;;
24407;SDS011;12542;50.924;4.516;2022-10-31T16:15:27;22.50;;;10.30;;
24407;SDS011;12542;50.924;4.516;2022-10-31T16:17:54;19.23;;;9.68;;
24407;SDS011;12542;50.924;4.516;2022-10-31T16:20:25;22.50;;;10.48;;
24407;SDS011;12542;50.924;4.516;2022-10-31T16:22:53;19.73;;;9.82;;
24407;SDS011;12542;50.924;4.516;2022-10-31T16:25:34;25.05;;;10.98;;
24407;SDS011;12542;50.924;4.516;2022-10-31T16:28:06;25.75;;;10.20;;
24407;SDS011;12542;50.924;4.516;2022-10-31T16:30:47;22.63;;;11.50;;
24407;SDS011;12542;50.924;4.516;2022-10-31T16:33:30;25.15;;;12.93;;
24407;SDS011;12542;50.924;4.516;2022-10-31T16:38:56;37.85;;;20.27;;
24407;SDS011;12542;50.924;4.516;2022-10-31T16:41:25;34.03;;;18.58;;
24407;SDS011;12542;50.924;4.516;2022-10-31T16:43:52;33.78;;;17.08;;
24407;SDS011;12542;50.924;4.516;2022-10-31T16:46:22;30.30;;;15.95;;
24407;SDS011;12542;50.924;4.516;2022-10-31T16:48:50;30.90;;;14.77;;
24407;SDS011;12542;50.924;4.516;2022-10-31T16:51:16;36.28;;;15.55;;
24407;SDS011;12542;50.924;4.516;2022-10-31T16:53:42;31.23;;;14.95;;
24407;SDS011;12542;50.924;4.516;2022-10-31T16:56:15;22.17;;;13.77;;
24407;SDS011;12542;50.924;4.516;2022-10-31T16:58:43;27.83;;;13.98;;
24407;SDS011;12542;50.924;4.516;2022-10-31T17:01:11;25.83;;;14.23;;
24407;SDS011;12542;50.924;4.516;2022-10-31T17:03:38;29.70;;;14.02;;
24407;SDS011;12542;50.924;4.516;2022-10-31T17:06:04;24.38;;;14.82;;
24407;SDS011;12542;50.924;4.516;2022-10-31T17:08:30;28.25;;;14.25;;
24407;SDS011;12542;50.924;4.516;2022-10-31T17:10:56;23.73;;;13.02;;
24407;SDS011;12542;50.924;4.516;2022-10-31T17:13:24;26.55;;;11.55;;
24407;SDS011;12542;50.924;4.516;2022-10-31T17:15:55;24.95;;;11.18;;
24407;SDS011;12542;50.924;4.516;2022-10-31T17:18:22;20.85;;;10.82;;